createdAt,value
2018-10-01T00:02:22.444Z,15.40
2018-10-01T00:04:52.863Z,15.00
2018-10-01T00:07:23.092Z,14.80
2018-10-01T00:09:53.276Z,14.95
2018-10-01T00:12:23.514Z,14.63
2018-10-01T00:14:53.801Z,15.72
2018-10-01T00:17:24.465Z,15.80
2018-10-01T00:20:04.339Z,13.57
2018-10-01T00:22:39.198Z,14.27
2018-10-01T00:25:09.108Z,14.53
2018-10-01T00:27:40.009Z,18.13
2018-10-01T00:30:09.903Z,13.37
2018-10-01T00:32:39.938Z,15.53
2018-10-01T00:35:10.212Z,14.00
2018-10-01T00:37:40.179Z,12.73
2018-10-01T00:40:10.951Z,15.07
2018-10-01T00:42:41.071Z,15.65
2018-10-01T00:45:10.946Z,14.40
2018-10-01T00:47:40.890Z,14.23
2018-10-01T00:50:11.704Z,13.62
2018-10-01T00:52:42.697Z,13.32
2018-10-01T00:55:13.340Z,13.93
2018-10-01T00:57:43.493Z,13.83
2018-10-01T01:00:13.676Z,14.03
2018-10-01T01:02:43.868Z,14.30
2018-10-01T01:05:13.851Z,14.17
2018-10-01T01:07:44.044Z,14.30
2018-10-01T01:10:14.201Z,14.00
2018-10-01T01:12:44.357Z,14.17
2018-10-01T01:15:15.378Z,14.70
2018-10-01T01:17:45.506Z,14.05
2018-10-01T01:20:15.817Z,13.43
2018-10-01T01:22:47.060Z,13.78
2018-10-01T01:27:52.388Z,12.87
2018-10-01T01:30:23.452Z,12.47
2018-10-01T01:32:53.735Z,12.57
2018-10-01T01:35:24.233Z,13.00
2018-10-01T01:37:54.687Z,12.37
2018-10-01T01:40:24.887Z,13.20
2018-10-01T01:42:55.176Z,11.60
2018-10-01T01:47:59.930Z,11.17
2018-10-01T01:50:29.796Z,12.73
2018-10-01T01:53:00.692Z,13.32
2018-10-01T01:55:30.581Z,12.57
2018-10-01T01:58:07.447Z,12.87
2018-10-01T02:00:37.922Z,12.60
2018-10-01T02:03:08.266Z,12.43
2018-10-01T02:05:39.545Z,12.07
2018-10-01T02:08:09.730Z,12.15
2018-10-01T02:10:40.735Z,11.90
2018-10-01T02:13:11.103Z,13.03
2018-10-01T02:15:41.299Z,12.33
2018-10-01T02:18:11.655Z,12.58
2018-10-01T02:23:17.239Z,12.83
2018-10-01T02:25:48.076Z,12.40
2018-10-01T02:28:18.400Z,12.35
2018-10-01T02:30:48.348Z,12.98
2018-10-01T02:33:18.609Z,11.90
2018-10-01T02:35:48.503Z,13.03
2018-10-01T02:38:20.205Z,13.78
2018-10-01T02:40:50.283Z,12.50
2018-10-01T02:43:21.022Z,12.75
2018-10-01T02:45:51.308Z,12.60
2018-10-01T02:48:21.805Z,13.03
2018-10-01T02:50:52.090Z,12.33
2018-10-01T02:53:27.215Z,12.18
2018-10-01T02:55:58.286Z,13.65
2018-10-01T02:58:29.449Z,16.27
2018-10-01T03:00:59.650Z,15.80
2018-10-01T03:03:29.827Z,14.80
2018-10-01T03:05:59.838Z,14.47
2018-10-01T03:08:31.052Z,13.63
2018-10-01T03:11:01.917Z,13.50
2018-10-01T03:13:32.591Z,14.18
2018-10-01T03:16:02.489Z,13.18
2018-10-01T03:18:33.650Z,14.03
2018-10-01T03:21:04.706Z,13.20
2018-10-01T03:23:35.409Z,14.27
2018-10-01T03:26:07.225Z,16.47
2018-10-01T03:28:37.503Z,16.95
2018-10-01T03:31:07.829Z,15.48
2018-10-01T03:33:38.596Z,15.93
2018-10-01T03:36:08.883Z,16.47
2018-10-01T03:38:39.269Z,16.60
2018-10-01T03:41:09.177Z,17.20
2018-10-01T03:43:39.954Z,16.83
2018-10-01T03:46:11.098Z,15.50
2018-10-01T03:48:41.250Z,16.03
2018-10-01T03:51:11.277Z,15.05
2018-10-01T03:53:42.170Z,15.97
2018-10-01T03:56:13.178Z,15.63
2018-10-01T03:58:43.330Z,16.53
2018-10-01T04:01:13.605Z,15.88
2018-10-01T04:03:43.937Z,15.15
2018-10-01T04:06:14.889Z,14.30
2018-10-01T04:08:45.199Z,13.50
2018-10-01T04:11:15.294Z,15.35
2018-10-01T04:13:46.330Z,13.77
2018-10-01T04:16:16.428Z,13.75
2018-10-01T04:18:47.307Z,15.58
2018-10-01T04:21:17.296Z,14.93
2018-10-01T04:23:47.447Z,15.43
2018-10-01T04:26:21.606Z,15.93
2018-10-01T04:28:52.066Z,15.58
2018-10-01T04:31:22.295Z,15.68
2018-10-01T04:33:52.512Z,15.17
2018-10-01T04:36:22.367Z,16.00
2018-10-01T04:38:52.531Z,15.63
2018-10-01T04:41:25.737Z,18.32
2018-10-01T04:43:56.384Z,18.65
2018-10-01T04:46:26.916Z,17.70
2018-10-01T04:48:57.622Z,17.37
2018-10-01T04:51:27.659Z,17.57
2018-10-01T04:53:58.421Z,18.45
2018-10-01T04:56:29.029Z,18.57
2018-10-01T04:58:59.259Z,17.30
2018-10-01T05:01:29.741Z,19.30
2018-10-01T05:04:00.561Z,19.10
2018-10-01T05:06:30.560Z,18.13
2018-10-01T05:09:00.797Z,18.42
2018-10-01T05:11:31.088Z,16.73
2018-10-01T05:14:01.564Z,15.53
2018-10-01T05:16:31.797Z,15.68
2018-10-01T05:19:02.023Z,15.68
2018-10-01T05:21:31.887Z,15.73
2018-10-01T05:24:02.154Z,16.57
2018-10-01T05:26:32.007Z,15.80
2018-10-01T05:29:02.084Z,16.15
2018-10-01T05:31:31.968Z,16.67
2018-10-01T05:34:01.952Z,15.48
2018-10-01T05:39:11.957Z,17.57
2018-10-01T05:41:42.083Z,16.25
2018-10-01T05:44:12.042Z,17.25
2018-10-01T05:46:42.608Z,17.10
2018-10-01T05:49:12.509Z,17.37
2018-10-01T05:51:43.424Z,17.20
2018-10-01T05:54:13.491Z,17.50
2018-10-01T05:56:43.629Z,16.60
2018-10-01T05:59:13.488Z,16.93
2018-10-01T06:01:47.559Z,15.83
2018-10-01T06:04:17.841Z,15.17
2018-10-01T06:06:47.622Z,16.00
2018-10-01T06:09:18.555Z,16.20
2018-10-01T06:11:48.571Z,15.97
2018-10-01T06:14:18.484Z,16.55
2018-10-01T06:16:48.361Z,16.47
2018-10-01T06:19:18.586Z,17.52
2018-10-01T06:21:48.397Z,15.83
2018-10-01T06:24:18.575Z,17.80
2018-10-01T06:26:49.010Z,18.53
2018-10-01T06:29:19.242Z,19.02
2018-10-01T06:31:49.106Z,22.77
2018-10-01T06:34:19.425Z,23.45
2018-10-01T06:36:49.867Z,25.87
2018-10-01T06:39:20.007Z,26.17
2018-10-01T06:41:50.091Z,26.70
2018-10-01T06:44:19.787Z,27.22
2018-10-01T06:46:49.890Z,28.40
2018-10-01T06:49:20.088Z,29.12
2018-10-01T06:51:50.686Z,28.70
2018-10-01T06:54:20.847Z,28.27
2018-10-01T06:56:50.899Z,29.17
2018-10-01T06:59:21.105Z,29.67
2018-10-01T07:01:51.113Z,30.80
2018-10-01T07:04:21.213Z,32.17
2018-10-01T07:06:51.273Z,32.42
2018-10-01T07:09:21.864Z,32.48
2018-10-01T07:11:52.080Z,35.05
2018-10-01T07:14:22.100Z,34.60
2018-10-01T07:16:52.205Z,35.08
2018-10-01T07:19:22.441Z,33.60
2018-10-01T07:24:27.202Z,33.27
2018-10-01T07:26:57.112Z,31.05
2018-10-01T07:29:27.523Z,31.67
2018-10-01T07:31:57.372Z,31.35
2018-10-01T07:34:27.878Z,31.10
2018-10-01T07:37:02.773Z,32.60
2018-10-01T07:39:32.875Z,30.85
2018-10-01T07:42:03.860Z,31.12
2018-10-01T07:44:35.034Z,28.93
2018-10-01T07:47:05.216Z,27.17
2018-10-01T07:49:35.246Z,25.40
2018-10-01T07:52:06.355Z,25.83
2018-10-01T07:54:36.425Z,25.63
2018-10-01T07:57:07.289Z,23.62
2018-10-01T07:59:37.384Z,25.07
2018-10-01T08:02:07.463Z,23.95
2018-10-01T08:04:37.535Z,25.50
2018-10-01T08:07:07.427Z,25.92
2018-10-01T08:09:37.457Z,28.30
2018-10-01T08:12:07.434Z,28.07
2018-10-01T08:14:37.230Z,27.77
2018-10-01T08:17:07.274Z,24.92
2018-10-01T08:19:37.180Z,23.90
2018-10-01T08:22:07.215Z,23.50
2018-10-01T08:24:44.115Z,20.33
2018-10-01T08:27:14.331Z,21.40
2018-10-01T08:29:44.663Z,20.37
2018-10-01T08:32:14.774Z,19.95
2018-10-01T08:37:19.594Z,18.10
2018-10-01T08:39:53.181Z,17.67
2018-10-01T08:42:23.207Z,17.48
2018-10-01T08:44:53.583Z,16.93
2018-10-01T08:47:23.997Z,16.90
2018-10-01T08:50:15.761Z,13.53
2018-10-01T08:53:53.004Z,11.78
2018-10-01T08:56:22.951Z,11.18
2018-10-01T08:58:52.849Z,10.20
2018-10-01T09:01:22.931Z,9.93
2018-10-01T09:03:56.937Z,12.25
2018-10-01T09:06:26.837Z,11.35
2018-10-01T09:08:56.770Z,12.05
2018-10-01T09:11:26.676Z,10.80
2018-10-01T09:13:56.643Z,9.50
2018-10-01T09:16:26.617Z,9.10
2018-10-01T09:18:56.671Z,8.48
2018-10-01T09:21:26.806Z,8.60
2018-10-01T09:23:56.632Z,8.58
2018-10-01T09:26:27.948Z,9.43
2018-10-01T09:28:58.085Z,9.43
2018-10-01T09:31:29.459Z,10.03
2018-10-01T09:34:00.096Z,11.63
2018-10-01T09:36:30.419Z,12.67
2018-10-01T09:39:00.731Z,12.07
2018-10-01T09:41:30.737Z,12.53
2018-10-01T09:44:00.543Z,11.60
2018-10-01T09:46:30.566Z,13.20
2018-10-01T09:49:01.227Z,12.70
2018-10-01T09:51:31.332Z,11.83
2018-10-01T09:54:01.861Z,12.28
2018-10-01T09:56:32.393Z,11.20
2018-10-01T09:59:02.531Z,11.22
2018-10-01T10:01:33.121Z,10.28
2018-10-01T10:04:03.123Z,12.13
2018-10-01T10:06:33.506Z,10.10
2018-10-01T10:09:05.188Z,9.20
2018-10-01T10:11:35.276Z,9.40
2018-10-01T10:14:06.270Z,9.10
2018-10-01T10:16:37.051Z,8.60
2018-10-01T10:19:07.151Z,8.35
2018-10-01T10:21:37.642Z,9.18
2018-10-01T10:24:07.507Z,9.43
2018-10-01T10:26:37.501Z,9.40
2018-10-01T10:29:07.428Z,10.05
2018-10-01T10:31:37.474Z,9.53
2018-10-01T10:36:46.672Z,9.20
2018-10-01T10:39:16.622Z,9.03
2018-10-01T10:41:46.657Z,8.93
2018-10-01T10:46:52.068Z,9.53
2018-10-01T10:49:22.022Z,8.98
2018-10-01T10:51:52.607Z,9.53
2018-10-01T10:54:22.433Z,10.43
2018-10-01T10:56:52.485Z,10.00
2018-10-01T10:59:22.517Z,10.40
2018-10-01T11:01:52.566Z,10.50
2018-10-01T11:06:57.772Z,12.30
2018-10-01T11:09:27.717Z,10.80
2018-10-01T11:11:57.506Z,10.78
2018-10-01T11:14:27.707Z,10.47
2018-10-01T11:16:57.625Z,10.70
2018-10-01T11:19:27.915Z,10.83
2018-10-01T11:21:57.954Z,11.22
2018-10-01T11:24:31.796Z,10.50
2018-10-01T11:27:01.748Z,10.00
2018-10-01T11:29:31.658Z,10.32
2018-10-01T11:32:02.601Z,10.10
2018-10-01T11:37:07.203Z,9.83
2018-10-01T11:39:37.280Z,10.50
2018-10-01T11:42:07.381Z,9.53
2018-10-01T11:47:12.020Z,9.87
2018-10-01T11:49:42.202Z,10.38
2018-10-01T11:52:12.862Z,10.20
2018-10-01T11:54:42.881Z,9.40
2018-10-01T11:57:13.501Z,9.90
2018-10-01T11:59:43.499Z,9.23
2018-10-01T12:04:48.292Z,9.13
2018-10-01T12:07:18.416Z,9.78
2018-10-01T12:09:48.884Z,9.10
2018-10-01T12:12:18.858Z,9.97
2018-10-01T12:14:48.816Z,9.40
2018-10-01T12:17:18.901Z,9.60
2018-10-01T12:19:48.725Z,9.47
2018-10-01T12:22:18.688Z,9.48
2018-10-01T12:24:48.663Z,9.60
2018-10-01T12:27:18.884Z,9.40
2018-10-01T12:29:49.394Z,9.07
2018-10-01T12:32:19.948Z,8.98
2018-10-01T12:34:50.215Z,8.67
2018-10-01T12:39:55.415Z,9.73
2018-10-01T12:42:25.698Z,8.67
2018-10-01T12:44:55.604Z,9.90
2018-10-01T12:47:25.483Z,10.70
2018-10-01T12:49:55.575Z,9.87
2018-10-01T12:52:25.364Z,9.30
2018-10-01T12:54:56.193Z,8.70
2018-10-01T12:57:26.173Z,8.40
2018-10-01T12:59:56.015Z,8.75
2018-10-01T13:02:26.795Z,9.40
2018-10-01T13:04:56.945Z,8.87
2018-10-01T13:07:26.934Z,9.08
2018-10-01T13:09:56.854Z,8.85
2018-10-01T13:12:27.286Z,9.00
2018-10-01T13:14:58.036Z,9.03
2018-10-01T13:17:31.887Z,9.20
2018-10-01T13:20:02.073Z,8.75
2018-10-01T13:22:32.043Z,9.40
2018-10-01T13:25:02.136Z,9.33
2018-10-01T13:30:06.889Z,9.20
2018-10-01T13:32:36.986Z,8.65
2018-10-01T13:35:07.329Z,9.35
2018-10-01T13:37:37.255Z,8.80
2018-10-01T13:40:07.579Z,8.75
2018-10-01T13:42:38.023Z,10.27
2018-10-01T13:45:07.994Z,9.13
2018-10-01T13:47:38.446Z,8.83
2018-10-01T13:50:08.970Z,9.10
2018-10-01T13:52:39.125Z,9.40
2018-10-01T13:55:09.024Z,9.37
2018-10-01T14:00:13.663Z,9.17
2018-10-01T14:02:43.775Z,9.10
2018-10-01T14:05:14.818Z,9.43
2018-10-01T14:07:44.757Z,9.73
2018-10-01T14:10:15.792Z,10.38
2018-10-01T14:12:46.424Z,11.05
2018-10-01T14:15:20.310Z,30.20
2018-10-01T14:17:50.239Z,14.53
2018-10-01T14:20:21.180Z,13.05
2018-10-01T14:22:51.393Z,15.83
2018-10-01T14:25:21.718Z,12.55
2018-10-01T14:27:51.786Z,10.75
2018-10-01T14:30:21.644Z,10.80
2018-10-01T14:32:52.068Z,12.20
2018-10-01T14:35:22.049Z,11.18
2018-10-01T14:37:51.891Z,11.88
2018-10-01T14:40:22.203Z,13.50
2018-10-01T14:45:27.319Z,12.33
2018-10-01T14:47:57.576Z,13.23
2018-10-01T14:50:27.910Z,14.20
2018-10-01T14:52:59.668Z,15.25
2018-10-01T14:55:29.996Z,15.40
2018-10-01T14:58:00.090Z,13.17
2018-10-01T15:00:31.416Z,12.73
2018-10-01T15:03:01.581Z,11.80
2018-10-01T15:05:32.501Z,12.53
2018-10-01T15:08:03.828Z,11.73
2018-10-01T15:13:08.922Z,9.93
2018-10-01T15:15:39.584Z,9.77
2018-10-01T15:18:09.550Z,10.13
2018-10-01T15:23:15.506Z,12.40
2018-10-01T15:25:45.457Z,14.03
2018-10-01T15:28:16.175Z,16.77
2018-10-01T15:30:46.313Z,15.75
2018-10-01T15:33:17.246Z,13.50
2018-10-01T15:35:47.444Z,12.10
2018-10-01T15:38:17.988Z,11.60
2018-10-01T15:40:48.146Z,11.97
2018-10-01T15:43:18.176Z,11.93
2018-10-01T15:45:48.169Z,11.20
2018-10-01T15:48:18.585Z,12.53
2018-10-01T15:50:48.852Z,12.17
2018-10-01T15:53:20.140Z,12.30
2018-10-01T15:55:50.521Z,12.73
2018-10-01T15:58:20.712Z,12.50
2018-10-01T16:00:51.195Z,12.47
2018-10-01T16:03:22.084Z,12.30
2018-10-01T16:05:52.118Z,12.80
2018-10-01T16:08:22.162Z,12.68
2018-10-01T16:10:52.010Z,13.60
2018-10-01T16:13:22.062Z,13.50
2018-10-01T16:15:52.389Z,16.05
2018-10-01T16:18:22.499Z,13.53
2018-10-01T16:20:52.605Z,14.10
2018-10-01T16:23:22.539Z,13.83
2018-10-01T16:25:53.801Z,14.87
2018-10-01T16:28:24.182Z,15.40
2018-10-01T16:30:54.288Z,15.50
2018-10-01T16:33:25.100Z,17.27
2018-10-01T16:35:55.590Z,19.30
2018-10-01T16:38:25.629Z,18.80
2018-10-01T16:40:56.080Z,20.02
2018-10-01T16:43:26.390Z,21.87
2018-10-01T16:45:56.505Z,25.00
2018-10-01T16:48:26.492Z,26.87
2018-10-01T16:50:56.504Z,25.40
2018-10-01T16:53:26.617Z,24.60
2018-10-01T16:55:56.560Z,25.23
2018-10-01T16:58:27.373Z,26.27
2018-10-01T17:00:57.433Z,27.90
2018-10-01T17:03:28.000Z,30.68
2018-10-01T17:05:59.320Z,30.12
2018-10-01T17:08:30.492Z,32.93
2018-10-01T17:11:00.929Z,36.08
2018-10-01T17:13:32.082Z,36.07
2018-10-01T17:16:02.224Z,32.03
2018-10-01T17:18:32.525Z,33.57
2018-10-01T17:21:02.693Z,30.82
2018-10-01T17:23:33.288Z,30.25
2018-10-01T17:26:03.508Z,34.15
2018-10-01T17:28:33.834Z,28.77
2018-10-01T17:31:04.190Z,31.57
2018-10-01T17:33:34.620Z,29.20
2018-10-01T17:36:04.611Z,25.77
2018-10-01T17:38:34.815Z,24.50
2018-10-01T17:41:06.479Z,26.05
2018-10-01T17:43:36.848Z,26.30
2018-10-01T17:46:06.976Z,27.62
2018-10-01T17:48:38.174Z,27.75
2018-10-01T17:51:08.208Z,29.10
2018-10-01T17:53:39.236Z,30.27
2018-10-01T17:56:10.192Z,30.37
2018-10-01T17:58:40.488Z,32.67
2018-10-01T18:03:46.447Z,35.57
2018-10-01T18:06:16.777Z,34.58
2018-10-01T18:08:47.118Z,34.88
2018-10-01T18:11:17.650Z,34.25
2018-10-01T18:13:47.703Z,37.65
2018-10-01T18:16:17.939Z,34.73
2018-10-01T18:18:48.464Z,34.83
2018-10-01T18:23:53.779Z,35.43
2018-10-01T18:26:24.066Z,36.27
2018-10-01T18:28:54.845Z,36.87
2018-10-01T18:31:24.864Z,34.80
2018-10-01T18:33:55.247Z,36.05
2018-10-01T18:36:26.668Z,35.53
2018-10-01T18:38:57.087Z,36.65
2018-10-01T18:41:27.519Z,32.93
2018-10-01T18:43:57.979Z,33.10
2018-10-01T18:46:28.382Z,32.77
2018-10-01T18:48:58.889Z,32.17
2018-10-01T18:51:30.258Z,31.87
2018-10-01T18:54:00.633Z,31.33
2018-10-01T18:56:33.883Z,29.32
2018-10-01T18:59:04.659Z,29.57
2018-10-01T19:01:34.967Z,30.47
2018-10-01T19:04:06.003Z,31.20
2018-10-01T19:06:36.836Z,30.05
2018-10-01T19:09:10.770Z,31.75
2018-10-01T19:11:41.911Z,32.35
2018-10-01T19:14:12.391Z,33.23
2018-10-01T19:16:42.513Z,33.83
2018-10-01T19:19:13.647Z,35.58
2018-10-01T19:21:44.274Z,35.23
2018-10-01T19:24:14.995Z,35.70
2018-10-01T19:26:45.052Z,36.33
2018-10-01T19:29:15.358Z,36.20
2018-10-01T19:31:45.512Z,36.63
2018-10-01T19:34:16.306Z,39.23
2018-10-01T19:36:46.502Z,39.80
2018-10-01T19:39:16.844Z,40.83
2018-10-01T19:41:46.790Z,39.80
2018-10-01T19:44:17.911Z,39.80
2018-10-01T19:46:48.102Z,39.93
2018-10-01T19:49:18.816Z,36.58
2018-10-01T19:51:49.593Z,34.93
2018-10-01T19:54:20.810Z,34.57
2018-10-01T19:56:50.891Z,33.40
2018-10-01T19:59:21.724Z,33.97
2018-10-01T20:01:51.826Z,33.95
2018-10-01T20:04:22.097Z,34.05
2018-10-01T20:06:52.891Z,33.23
2018-10-01T20:09:23.076Z,35.83
2018-10-01T20:11:53.466Z,35.88
2018-10-01T20:14:24.144Z,38.20
2018-10-01T20:16:55.107Z,38.40
2018-10-01T20:19:25.719Z,39.27
2018-10-01T20:21:55.784Z,39.35
2018-10-01T20:24:26.081Z,38.07
2018-10-01T20:26:56.159Z,39.27
2018-10-01T20:29:26.612Z,39.57
2018-10-01T20:31:57.586Z,41.08
2018-10-01T20:34:31.104Z,42.45
2018-10-01T20:37:01.726Z,43.15
2018-10-01T20:39:33.356Z,44.33
2018-10-01T20:42:03.524Z,45.85
2018-10-01T20:44:34.037Z,44.43
2018-10-01T20:47:09.404Z,45.50
2018-10-01T20:49:39.542Z,44.77
2018-10-01T20:52:09.736Z,45.85
2018-10-01T20:54:40.331Z,46.80
2018-10-01T20:57:10.761Z,46.27
2018-10-01T20:59:41.003Z,47.53
2018-10-01T21:02:11.379Z,47.27
2018-10-01T21:04:42.214Z,47.30
2018-10-01T21:07:12.488Z,47.33
2018-10-01T21:09:42.500Z,48.23
2018-10-01T21:12:12.781Z,47.05
2018-10-01T21:14:43.558Z,48.52
2018-10-01T21:17:14.657Z,46.60
2018-10-01T21:19:45.039Z,48.27
2018-10-01T21:22:15.245Z,46.58
2018-10-01T21:24:45.479Z,48.23
2018-10-01T21:27:15.752Z,47.57
2018-10-01T21:29:46.776Z,47.75
2018-10-01T21:32:16.912Z,48.35
2018-10-01T21:34:47.484Z,49.65
2018-10-01T21:37:17.701Z,51.13
2018-10-01T21:40:09.731Z,50.43
2018-10-01T21:42:40.107Z,51.87
2018-10-01T21:45:11.361Z,52.88
2018-10-01T21:47:42.398Z,52.07
2018-10-01T21:50:13.110Z,53.45
2018-10-01T21:52:44.665Z,51.68
2018-10-01T21:55:15.087Z,48.60
2018-10-01T21:57:45.700Z,47.30
2018-10-01T22:00:16.265Z,45.25
2018-10-01T22:02:46.465Z,46.07
2018-10-01T22:05:16.637Z,46.33
2018-10-01T22:07:46.858Z,44.55
2018-10-01T22:10:17.187Z,42.00
2018-10-01T22:12:47.258Z,41.45
2018-10-01T22:15:17.280Z,45.40
2018-10-01T22:17:47.792Z,45.60
2018-10-01T22:20:18.908Z,44.88
2018-10-01T22:22:49.311Z,42.57
2018-10-01T22:25:19.641Z,45.00
2018-10-01T22:27:50.308Z,44.58
2018-10-01T22:30:20.516Z,47.08
2018-10-01T22:32:51.484Z,46.00
2018-10-01T22:35:21.959Z,45.95
2018-10-01T22:37:53.149Z,47.25
2018-10-01T22:40:24.606Z,47.77
2018-10-01T22:42:55.736Z,47.78
2018-10-01T22:45:25.800Z,47.13
2018-10-01T22:47:56.060Z,46.85
2018-10-01T22:50:26.689Z,44.50
2018-10-01T22:52:58.793Z,43.73
2018-10-01T22:55:29.495Z,44.73
2018-10-01T22:57:59.717Z,45.78
2018-10-01T23:00:29.901Z,41.23
2018-10-01T23:03:00.066Z,40.27
2018-10-01T23:05:31.668Z,39.33
2018-10-01T23:08:01.785Z,39.98
2018-10-01T23:10:32.189Z,37.13
2018-10-01T23:13:02.917Z,36.93
2018-10-01T23:15:33.281Z,35.15
2018-10-01T23:18:04.029Z,36.33
2018-10-01T23:20:34.280Z,36.37
2018-10-01T23:23:04.230Z,34.40
2018-10-01T23:25:34.250Z,35.13
2018-10-01T23:28:04.654Z,34.83
2018-10-01T23:30:35.300Z,34.77
2018-10-01T23:35:41.023Z,34.43
2018-10-01T23:38:10.970Z,34.25
2018-10-01T23:40:41.007Z,33.02
2018-10-01T23:43:11.422Z,32.95
2018-10-01T23:45:41.528Z,30.65
2018-10-01T23:48:11.678Z,30.70
2018-10-01T23:50:41.998Z,28.32
2018-10-01T23:53:12.003Z,27.02
2018-10-01T23:55:42.722Z,27.13
2018-10-01T23:58:13.175Z,27.60
